Bodega Bay, CA (94923)

3:42 PM PDT on September 16, 2014 (GMT -0700)
Sereno Del Mar | Change Station
CLOSE
Current Station
Personal Weather Station
Location: Bodega Bay, CA
Elevation: 110 ft
Nearby Weather Stations
Active Advisory: Beach Hazard Statement

Elev 110 ft 38.38 °N, 123.08 °W | Updated 2 minutes ago

Partly Cloudy
Partly Cloudy
69.4 °F
Feels Like 69.4 °F
N
3.0
Wind Variable Wind from WNW
Gusts 3.0 mph

Today
High -- | Low -- °F
--% Chance of Precip.
Yesterday
High -- | Low -- °F
Precip. -- in
6:54 AM 7:18 PM
Last Quarter, 42% visible
Pressure 29.80 in
Visibility 10.0 miles
Clouds Scattered Clouds 25000 ft
Dew Point 63 °F
Humidity 81%
Rainfall 0.00 in
Snow Depth 0 in , 0 in , 1 in
UV 5 out of 12
Pollen 5.20 out of 12
Air Quality Not available.
Flu Activity Not available.
METAR KSTS 162153Z 18006KT 10SM SCT250 28/13 A2982 RMK AO2 SLP090 T02830128

More Conditions Fewer Conditions

Pressure 29.80 in
Visibility 10.0 miles
Clouds Scattered Clouds 25000 ft
Dew Point 63 °F
Humidity 81%
Rainfall 0.00 in
Snow Depth 0 in , 0 in , 1 in
UV 5 out of 12
Pollen 5.20 out of 12
Air Quality Not available.
Flu Activity Not available.
METAR KSTS 162153Z 18006KT 10SM SCT250 28/13 A2982 RMK AO2 SLP090 T02830128

More Conditions Fewer Conditions

10-Day Weather Forecast

Almanac

Astronomy

Sep. 16, 2014 Rise Set
Actual Time 6:54 AM PDT 7:18 PM PDT
Civil Twilight 6:28 AM PDT 7:44 PM PDT
Nautical Twilight 5:57 AM PDT 8:16 PM PDT
Astronomical Twilight 5:25 AM PDT 8:47 PM PDT
Moon 12:12 AM PDT 2:43 PM PDT
Length of Visible Light 13h 16m
Length of Day
12h 23m
Tomorrow will be 2m 27s shorter.
Last Quarter, 42% of the Moon is Illuminated
Today
Last Quarter
Sep 24
New
Oct 1
First Quarter
Oct 8
Full
Oct 15
Last Quarter

Today's Extremes

State Highs State Lows

Community

WunderPhotos

Upload Photos

1,753,897 photos uploaded!

Nearby

Snow Depth

Station Depth Elevation
Summit Meadow 0 in 9122 ft
Leavitt Meadows 0 in 7200 ft
CSS Lab 1 in 6900 ft
Adin Mountain 0 in 6200 ft

Earthquake Activity

City Distance Mag. Time & Date
Cobb, California 35 miles 2.8 1:23 PM PDT
2014-09-16
Covelo, California 97 miles 3.3 1:17 PM PDT
2014-09-14
Cobb, California 35 miles 2.7 11:07 AM PDT
2014-09-14
Minimum magnitude displayed is 2.5.

Coastal Water Temperatures

Place Temperature
Point Reyes, CA 64.0 °F
Arena Cove, CA 60.1 °F
San Francisco, CA 64.9 °F
Richmond, CA 68.0 °F

Nearby Weather Stations